Time;durP1;ratioP1;P1;durP2;ratioP2;P2;SDS_P1;SDS_P2;PMS_P1;PMS_P2;Temp;Humidity;BMP_temperature;BMP_pressure;BME280_temperature;BME280_humidity;BME280_pressure;Samples;Min_cycle;Max_cycle;Signal;HPM_P1;HPM_P2
2021/03/21 00:00:46;;;;;;;38.15;27.50;;;7.60;99.90;;;;;;4138907;28;20142;-67
2021/03/21 00:02:46;;;;;;;35.67;25.98;;;7.60;99.90;;;;;;4121343;28;20031;-67
2021/03/21 00:04:47;;;;;;;36.70;26.88;;;7.60;99.90;;;;;;4138763;28;20034;-67
2021/03/21 00:06:48;;;;;;;39.50;27.70;;;7.60;99.90;;;;;;4123534;28;20046;-67
2021/03/21 00:08:49;;;;;;;38.95;28.83;;;7.60;99.90;;;;;;4141919;28;20069;-66
2021/03/21 00:10:52;;;;;;;39.28;27.98;;;7.50;99.90;;;;;;4116989;28;20085;-67
2021/03/21 00:12:54;;;;;;;38.55;27.60;;;7.50;99.90;;;;;;4135142;28;20032;-67
2021/03/21 00:15:00;;;;;;;41.50;28.17;;;7.50;99.90;;;;;;4127910;28;20128;-67
2021/03/21 00:17:02;;;;;;;36.10;25.73;;;7.50;99.90;;;;;;4143505;28;20026;-67
2021/03/21 00:19:05;;;;;;;36.08;26.17;;;7.50;99.90;;;;;;4131048;28;20022;-67
2021/03/21 00:21:09;;;;;;;39.22;27.23;;;7.50;99.90;;;;;;4136982;28;20041;-67
2021/03/21 00:23:10;;;;;;;37.88;26.95;;;7.50;99.90;;;;;;4137756;28;20077;-67
2021/03/21 00:25:14;;;;;;;35.63;25.58;;;7.50;99.90;;;;;;4137139;28;20046;-67
2021/03/21 00:27:17;;;;;;;37.17;25.42;;;7.50;99.90;;;;;;4134301;28;20030;-67
2021/03/21 00:29:18;;;;;;;39.83;25.48;;;7.50;99.90;;;;;;4137496;28;20026;-67
2021/03/21 00:31:18;;;;;;;38.45;25.77;;;7.50;99.90;;;;;;4129202;28;20022;-67
2021/03/21 00:33:22;;;;;;;37.30;26.90;;;7.50;99.90;;;;;;4134698;28;20043;-67
2021/03/21 00:35:24;;;;;;;42.60;27.60;;;7.40;99.90;;;;;;4137946;28;20467;-67
2021/03/21 00:37:25;;;;;;;36.55;26.15;;;7.40;99.90;;;;;;4140712;28;20499;-67
2021/03/21 00:39:25;;;;;;;37.55;26.50;;;7.40;99.90;;;;;;4143780;28;20042;-67
2021/03/21 00:41:27;;;;;;;37.28;26.50;;;7.40;99.90;;;;;;4130777;28;20494;-67
2021/03/21 00:43:28;;;;;;;35.55;25.17;;;7.40;99.90;;;;;;4140369;28;20554;-67
2021/03/21 00:45:30;;;;;;;36.15;25.58;;;7.40;99.90;;;;;;4138525;28;20038;-67
2021/03/21 00:47:30;;;;;;;37.10;26.33;;;7.40;99.90;;;;;;4144491;28;20099;-67
2021/03/21 00:49:31;;;;;;;42.03;28.33;;;7.40;99.90;;;;;;4145106;28;20120;-67
2021/03/21 00:51:32;;;;;;;37.15;26.30;;;7.40;99.90;;;;;;4144621;28;20653;-67
2021/03/21 00:53:33;;;;;;;36.65;25.92;;;7.40;99.90;;;;;;4116849;28;20098;-67
2021/03/21 00:55:34;;;;;;;33.65;24.20;;;7.40;99.90;;;;;;4136506;28;20098;-67
2021/03/21 00:57:34;;;;;;;36.28;25.35;;;7.40;99.90;;;;;;4125180;28;20038;-67
2021/03/21 00:59:35;;;;;;;38.92;25.23;;;7.40;99.90;;;;;;4130987;28;20034;-67
2021/03/21 01:01:36;;;;;;;38.13;25.13;;;7.40;99.90;;;;;;4144322;28;20048;-67
2021/03/21 01:03:36;;;;;;;34.25;23.55;;;7.40;99.90;;;;;;4135994;28;20033;-67
2021/03/21 01:05:46;;;;;;;31.63;22.63;;;7.40;99.90;;;;;;4116454;28;20059;-67
2021/03/21 01:07:49;;;;;;;30.27;21.00;;;7.40;99.90;;;;;;4129671;28;20038;-67
2021/03/21 01:09:51;;;;;;;32.67;22.88;;;7.40;99.90;;;;;;4129670;28;20065;-67
2021/03/21 01:11:52;;;;;;;34.92;23.27;;;7.40;99.90;;;;;;4125574;28;20038;-67
2021/03/21 01:13:53;;;;;;;33.80;21.63;;;7.40;99.90;;;;;;4121229;28;20039;-67
2021/03/21 01:15:53;;;;;;;31.48;22.40;;;7.40;99.90;;;;;;4135533;28;20036;-67
2021/03/21 01:17:55;;;;;;;30.02;21.17;;;7.40;99.90;;;;;;4143856;28;20030;-67
2021/03/21 01:19:56;;;;;;;26.05;19.48;;;7.40;99.90;;;;;;4128226;28;20034;-67
2021/03/21 01:21:57;;;;;;;27.15;19.70;;;7.50;99.90;;;;;;4142438;28;20038;-67
2021/03/21 01:23:58;;;;;;;31.05;20.27;;;7.50;99.90;;;;;;4138226;28;20031;-67
2021/03/21 01:25:59;;;;;;;27.20;20.20;;;7.50;99.90;;;;;;4117271;28;20075;-67
2021/03/21 01:27:59;;;;;;;25.75;19.17;;;7.50;99.90;;;;;;4143836;28;20390;-67
2021/03/21 01:30:00;;;;;;;29.58;20.67;;;7.50;99.90;;;;;;4135909;28;20046;-67
2021/03/21 01:32:01;;;;;;;28.58;20.05;;;7.50;99.90;;;;;;4112923;28;20030;-67
2021/03/21 01:34:02;;;;;;;26.08;18.77;;;7.60;99.90;;;;;;4133470;28;20035;-67
2021/03/21 01:36:13;;;;;;;24.95;17.95;;;7.60;99.90;;;;;;4134358;28;20037;-67
2021/03/21 01:38:17;;;;;;;28.23;20.15;;;7.60;99.90;;;;;;4143722;28;20038;-67
2021/03/21 01:40:19;;;;;;;24.30;17.75;;;7.60;99.90;;;;;;4111458;28;20058;-67
2021/03/21 01:42:20;;;;;;;30.42;20.88;;;7.60;99.90;;;;;;4139418;28;20130;-67
2021/03/21 01:44:21;;;;;;;25.75;18.20;;;7.60;99.90;;;;;;4133167;28;20156;-67
2021/03/21 01:46:34;;;;;;;31.80;19.48;;;7.50;99.90;;;;;;4126682;28;20037;-67
2021/03/21 01:48:53;;;;;;;27.60;18.98;;;7.50;99.90;;;;;;4138035;28;20029;-67
2021/03/21 01:50:58;;;;;;;28.48;19.63;;;7.50;99.90;;;;;;4126544;28;20124;-67
2021/03/21 01:53:00;;;;;;;26.88;18.60;;;7.50;99.90;;;;;;4143932;28;20029;-67
2021/03/21 01:55:04;;;;;;;25.80;17.80;;;7.40;99.90;;;;;;4143695;28;20084;-67
2021/03/21 01:57:05;;;;;;;27.45;18.50;;;7.50;99.90;;;;;;4126112;28;20030;-67
2021/03/21 01:59:15;;;;;;;29.95;20.13;;;7.40;99.90;;;;;;4117560;28;20108;-67
2021/03/21 02:01:24;;;;;;;28.83;18.85;;;7.40;99.90;;;;;;4135452;28;20034;-67
2021/03/21 02:03:26;;;;;;;25.15;18.23;;;7.30;99.90;;;;;;4131437;28;20117;-67
2021/03/21 02:05:27;;;;;;;27.83;19.13;;;7.30;99.90;;;;;;4118241;28;20136;-67
2021/03/21 02:07:33;;;;;;;25.35;18.23;;;7.40;99.90;;;;;;4110433;28;20027;-67
2021/03/21 02:09:40;;;;;;;25.48;18.15;;;7.40;99.90;;;;;;4127977;28;20093;-67
2021/03/21 02:12:14;;;;;;;27.88;19.00;;;7.40;99.90;;;;;;4117712;28;20038;-67
2021/03/21 02:14:20;;;;;;;25.23;17.58;;;7.40;99.90;;;;;;4125345;28;20178;-67
2021/03/21 02:16:44;;;;;;;26.25;17.73;;;7.40;99.90;;;;;;4135918;28;20037;-67
2021/03/21 02:19:14;;;;;;;22.17;15.50;;;7.40;99.90;;;;;;4138818;28;20399;-67
2021/03/21 02:21:47;;;;;;;25.95;17.30;;;7.30;99.90;;;;;;4125033;28;20041;-67
2021/03/21 02:23:52;;;;;;;23.52;16.02;;;7.30;99.90;;;;;;4130050;28;20525;-67
2021/03/21 02:26:11;;;;;;;23.63;17.13;;;7.40;99.90;;;;;;4118368;28;20447;-67
2021/03/21 02:28:38;;;;;;;23.58;16.17;;;7.40;99.90;;;;;;4110577;28;20034;-67
2021/03/21 02:30:51;;;;;;;25.30;16.90;;;7.30;99.90;;;;;;4115165;28;20129;-67
2021/03/21 02:33:02;;;;;;;21.58;15.40;;;7.30;99.90;;;;;;4125351;28;20041;-67
2021/03/21 02:35:11;;;;;;;20.95;14.77;;;7.30;99.90;;;;;;4106775;28;20094;-67
2021/03/21 02:37:35;;;;;;;21.20;14.90;;;7.30;99.90;;;;;;4135027;28;20441;-67
2021/03/21 02:39:49;;;;;;;21.65;15.63;;;7.30;99.90;;;;;;4134500;28;20038;-67
2021/03/21 02:41:56;;;;;;;20.58;15.15;;;7.30;99.90;;;;;;4134631;28;20038;-67
2021/03/21 02:44:08;;;;;;;20.45;14.60;;;7.30;99.90;;;;;;4138913;28;20038;-67
2021/03/21 02:46:19;;;;;;;22.63;15.00;;;7.30;99.90;;;;;;4134161;28;20052;-67
2021/03/21 02:48:43;;;;;;;22.65;15.23;;;7.30;99.90;;;;;;4134502;28;20530;-67
2021/03/21 02:50:54;;;;;;;19.30;13.82;;;7.30;99.90;;;;;;4124926;28;20038;-67
2021/03/21 02:53:31;;;;;;;20.33;14.02;;;7.30;99.90;;;;;;4129994;28;20030;-67
2021/03/21 02:55:38;;;;;;;23.08;14.00;;;7.30;99.90;;;;;;4081269;28;20050;-67
2021/03/21 02:57:46;;;;;;;18.70;12.30;;;7.30;99.90;;;;;;4120606;28;20035;-67
2021/03/21 02:59:53;;;;;;;20.73;13.90;;;7.30;99.90;;;;;;4138412;28;20050;-67
2021/03/21 03:01:59;;;;;;;19.13;12.68;;;7.30;99.90;;;;;;4132042;28;20034;-67
2021/03/21 03:04:10;;;;;;;18.35;13.13;;;7.30;99.90;;;;;;4143023;28;20037;-67
2021/03/21 03:06:15;;;;;;;18.88;12.55;;;7.30;99.90;;;;;;4093955;28;20171;-67
2021/03/21 03:08:36;;;;;;;18.33;13.10;;;7.30;99.90;;;;;;4120976;28;20034;-67
2021/03/21 03:11:03;;;;;;;16.65;12.02;;;7.30;99.90;;;;;;4141851;28;20177;-67
2021/03/21 03:13:07;;;;;;;18.80;12.73;;;7.30;99.90;;;;;;4127201;28;20033;-67
2021/03/21 03:15:14;;;;;;;20.00;13.57;;;7.30;99.90;;;;;;4134518;28;20093;-67
2021/03/21 03:17:56;;;;;;;17.88;11.93;;;7.20;99.90;;;;;;4130203;28;20038;-67
2021/03/21 03:20:23;;;;;;;20.25;12.20;;;7.20;99.90;;;;;;4120645;28;20428;-67
2021/03/21 03:22:33;;;;;;;17.92;12.02;;;7.20;99.90;;;;;;4134533;28;20034;-67
2021/03/21 03:25:08;;;;;;;17.75;12.13;;;7.20;99.90;;;;;;4127682;28;20046;-67
2021/03/21 03:27:12;;;;;;;19.70;12.50;;;7.20;99.90;;;;;;4132245;28;20101;-67
2021/03/21 03:29:24;;;;;;;16.70;11.65;;;7.10;99.90;;;;;;4142029;28;20034;-67
2021/03/21 03:31:37;;;;;;;20.25;12.65;;;7.10;99.90;;;;;;4133296;28;20459;-67
2021/03/21 03:33:39;;;;;;;17.67;12.40;;;7.10;99.90;;;;;;4142594;28;20096;-67
2021/03/21 03:35:39;;;;;;;17.95;11.95;;;7.20;99.90;;;;;;4130085;28;20383;-67
2021/03/21 03:37:41;;;;;;;16.38;11.02;;;7.10;99.90;;;;;;4127487;28;20031;-67
2021/03/21 03:39:41;;;;;;;17.70;11.43;;;7.10;99.90;;;;;;4127086;28;20517;-67
2021/03/21 03:42:10;;;;;;;18.38;11.38;;;7.20;99.90;;;;;;4133000;28;20045;-67
2021/03/21 03:44:33;;;;;;;17.35;10.48;;;7.10;99.90;;;;;;4121593;28;20549;-67
2021/03/21 03:46:40;;;;;;;14.02;9.50;;;7.10;99.90;;;;;;4141598;28;20431;-67
2021/03/21 03:48:44;;;;;;;14.95;10.68;;;7.20;99.90;;;;;;4126252;28;20570;-67
2021/03/21 03:51:05;;;;;;;14.50;9.77;;;7.20;99.90;;;;;;4138425;28;20680;-67
2021/03/21 03:53:18;;;;;;;11.63;8.43;;;7.20;99.90;;;;;;4145571;28;20073;-67
2021/03/21 03:55:31;;;;;;;13.05;8.73;;;7.20;99.90;;;;;;4141371;28;20037;-67
2021/03/21 03:57:43;;;;;;;12.40;8.80;;;7.20;99.90;;;;;;4132512;28;20042;-67
2021/03/21 03:59:49;;;;;;;12.70;7.97;;;7.20;99.90;;;;;;4145244;28;20037;-67
2021/03/21 04:02:01;;;;;;;15.13;9.05;;;7.20;99.90;;;;;;4143312;28;20026;-67
2021/03/21 04:04:36;;;;;;;13.00;8.45;;;7.20;99.90;;;;;;4136891;28;20117;-67
2021/03/21 04:06:53;;;;;;;15.00;8.77;;;7.20;99.90;;;;;;4143763;28;20565;-67
2021/03/21 04:09:06;;;;;;;12.88;8.50;;;7.20;99.90;;;;;;4124125;28;20572;-67
2021/03/21 04:11:36;;;;;;;13.30;9.10;;;7.20;99.90;;;;;;4139530;28;20034;-67
2021/03/21 04:13:42;;;;;;;;;;;7.20;99.90;;;;;;4113043;28;20045;-67
2021/03/21 04:15:48;;;;;;;18.00;11.50;;;7.20;99.90;;;;;;4133296;28;20497;-67
2021/03/21 04:18:02;;;;;;;17.60;11.30;;;7.20;99.90;;;;;;4140680;28;20034;-67
2021/03/21 04:20:24;;;;;;;18.92;11.30;;;7.20;99.90;;;;;;4130593;28;20022;-67
2021/03/21 04:22:31;;;;;;;18.73;11.75;;;7.10;99.90;;;;;;4136873;28;20034;-67
2021/03/21 04:24:50;;;;;;;18.25;11.75;;;7.20;99.90;;;;;;4139527;28;20038;-67
2021/03/21 04:27:13;;;;;;;23.48;13.52;;;7.10;99.90;;;;;;4138192;28;20410;-67
2021/03/21 04:29:20;;;;;;;;;;;7.10;99.90;;;;;;4137511;28;20034;-67
2021/03/21 04:31:21;;;;;;;23.02;14.55;;;7.10;99.90;;;;;;4135368;28;19931;-67
2021/03/21 04:33:28;;;;;;;22.27;14.20;;;7.00;99.90;;;;;;4130150;28;20030;-67
2021/03/21 04:35:43;;;;;;;24.15;15.25;;;7.10;99.90;;;;;;4144897;28;20037;-67
2021/03/21 04:37:54;;;;;;;20.77;12.88;;;7.10;99.90;;;;;;4133051;28;20041;-67
2021/03/21 04:39:56;;;;;;;22.35;14.02;;;7.00;99.90;;;;;;4142431;28;20526;-67
2021/03/21 04:42:09;;;;;;;22.80;14.52;;;7.10;99.90;;;;;;4138346;28;20026;-67
2021/03/21 04:44:15;;;;;;;22.98;14.60;;;7.10;99.90;;;;;;4136590;28;20041;-67
2021/03/21 04:46:29;;;;;;;25.83;15.98;;;7.10;99.90;;;;;;4132010;28;20045;-67
2021/03/21 04:48:30;;;;;;;24.13;15.15;;;7.10;99.90;;;;;;4145187;28;20045;-67
2021/03/21 04:50:32;;;;;;;24.98;16.38;;;7.10;99.90;;;;;;4145301;28;20042;-67
2021/03/21 04:52:39;;;;;;;28.65;16.05;;;7.00;99.90;;;;;;4134308;28;20042;-67
2021/03/21 04:54:42;;;;;;;28.67;15.63;;;7.10;99.90;;;;;;4131557;28;20038;-67
2021/03/21 04:56:55;;;;;;;24.40;15.05;;;7.10;99.90;;;;;;4142088;28;20434;-67
2021/03/21 04:59:05;;;;;;;24.38;15.13;;;7.10;99.90;;;;;;4138963;28;20037;-67
2021/03/21 05:01:18;;;;;;;24.63;15.25;;;7.10;99.90;;;;;;4128026;28;20080;-67
2021/03/21 05:03:28;;;;;;;24.23;14.73;;;7.10;99.90;;;;;;4128554;28;20033;-67
2021/03/21 05:05:37;;;;;;;22.90;14.55;;;7.10;99.90;;;;;;4125630;28;20046;-67
2021/03/21 05:07:49;;;;;;;27.20;16.77;;;7.10;99.90;;;;;;4119488;28;20030;-67
2021/03/21 05:09:55;;;;;;;24.25;15.95;;;7.10;99.90;;;;;;4117155;28;20038;-67
2021/03/21 05:12:13;;;;;;;27.75;16.75;;;7.10;99.90;;;;;;4127118;28;20130;-67
2021/03/21 05:14:22;;;;;;;28.58;17.60;;;7.10;99.90;;;;;;4136764;28;20386;-67
2021/03/21 05:16:37;;;;;;;23.10;15.52;;;7.20;99.90;;;;;;4143648;28;20025;-67
2021/03/21 05:18:51;;;;;;;26.48;16.75;;;7.20;99.90;;;;;;4130235;28;20035;-67
2021/03/21 05:21:12;;;;;;;29.45;18.92;;;7.20;99.90;;;;;;4128627;28;20668;-67
2021/03/21 05:23:39;;;;;;;28.42;17.30;;;7.10;99.90;;;;;;4133671;28;20093;-67
2021/03/21 05:25:46;;;;;;;27.35;17.15;;;7.10;99.90;;;;;;4139095;28;20085;-67
2021/03/21 05:27:54;;;;;;;28.85;17.33;;;7.10;99.90;;;;;;4144045;28;20512;-67
2021/03/21 05:30:01;;;;;;;29.38;17.73;;;7.20;99.90;;;;;;4136234;28;20032;-67
2021/03/21 05:32:04;;;;;;;25.65;17.45;;;7.10;99.90;;;;;;4129811;28;20438;-67
2021/03/21 05:34:05;;;;;;;27.80;18.13;;;7.10;99.90;;;;;;4143283;28;20037;-67
2021/03/21 05:36:18;;;;;;;28.48;18.45;;;7.10;99.90;;;;;;4126661;28;20030;-67
2021/03/21 05:38:41;;;;;;;27.25;17.67;;;7.10;99.90;;;;;;4129555;28;20383;-67
2021/03/21 05:41:19;;;;;;;30.00;19.52;;;7.20;99.90;;;;;;4132211;28;20765;-67
2021/03/21 05:43:47;;;;;;;28.83;18.92;;;7.20;99.90;;;;;;4141411;28;20559;-67
2021/03/21 05:46:12;;;;;;;28.73;18.77;;;7.20;99.90;;;;;;4129608;28;20041;-67
2021/03/21 05:48:39;;;;;;;28.63;18.63;;;7.20;99.90;;;;;;4142701;28;20441;-67
2021/03/21 05:50:59;;;;;;;29.95;18.38;;;7.10;99.90;;;;;;4118653;28;20096;-67
2021/03/21 05:53:22;;;;;;;30.00;19.33;;;7.20;99.90;;;;;;4143867;28;20471;-67
2021/03/21 05:55:59;;;;;;;29.38;17.73;;;7.10;99.90;;;;;;4131856;28;20036;-67
2021/03/21 05:58:19;;;;;;;25.63;17.42;;;7.20;99.90;;;;;;4130787;28;20070;-67
2021/03/21 06:00:47;;;;;;;27.75;17.50;;;7.20;99.90;;;;;;4136119;28;20032;-67
2021/03/21 06:03:22;;;;;;;30.92;20.63;;;7.20;99.90;;;;;;4140940;28;20030;-67
2021/03/21 06:05:34;;;;;;;27.45;18.58;;;7.20;99.90;;;;;;4136419;28;20034;-67
2021/03/21 06:08:14;;;;;;;26.25;17.95;;;7.20;99.90;;;;;;4134834;28;20039;-67
2021/03/21 06:10:37;;;;;;;31.33;20.00;;;7.20;99.90;;;;;;4125589;28;20058;-67
2021/03/21 06:12:57;;;;;;;27.83;18.15;;;7.20;99.90;;;;;;4132723;28;20034;-67
2021/03/21 06:15:39;;;;;;;27.90;18.55;;;7.20;99.90;;;;;;4142388;28;20038;-67
2021/03/21 06:18:17;;;;;;;28.00;18.17;;;7.20;99.90;;;;;;4139264;28;20045;-67
2021/03/21 06:20:37;;;;;;;26.50;17.17;;;7.20;99.90;;;;;;4134251;28;20031;-67
2021/03/21 06:22:58;;;;;;;23.67;16.17;;;7.20;99.90;;;;;;4126275;28;20097;-67
2021/03/21 06:25:15;;;;;;;27.90;17.83;;;7.20;99.90;;;;;;4125710;28;20383;-67
2021/03/21 06:27:53;;;;;;;27.63;17.48;;;7.20;99.90;;;;;;4110569;28;20035;-67
2021/03/21 06:29:57;;;;;;;29.95;17.50;;;7.20;99.90;;;;;;4133148;28;20037;-67
2021/03/21 06:32:19;;;;;;;23.98;16.15;;;7.20;99.90;;;;;;4117593;28;20066;-67
2021/03/21 06:34:29;;;;;;;27.60;16.88;;;7.20;99.90;;;;;;4133657;28;20034;-67
2021/03/21 06:36:41;;;;;;;24.55;16.42;;;7.30;99.90;;;;;;4134288;28;20038;-67
2021/03/21 06:39:23;;;;;;;23.75;16.35;;;7.30;99.90;;;;;;4090301;28;20568;-67
2021/03/21 06:41:45;;;;;;;26.40;16.45;;;7.30;99.90;;;;;;4124750;28;20034;-67
2021/03/21 06:44:04;;;;;;;26.08;16.88;;;7.30;99.90;;;;;;4128003;28;20058;-67
2021/03/21 06:46:23;;;;;;;23.77;16.02;;;7.30;99.90;;;;;;4136262;28;20107;-67
2021/03/21 06:48:57;;;;;;;25.08;15.65;;;7.30;99.90;;;;;;4135950;28;20034;-67
2021/03/21 06:51:03;;;;;;;21.05;14.68;;;7.30;99.90;;;;;;4115203;28;20037;-67
2021/03/21 06:53:14;;;;;;;27.42;15.65;;;7.30;99.90;;;;;;4129949;28;20125;-67
2021/03/21 06:55:39;;;;;;;29.45;14.57;;;7.30;99.90;;;;;;4129807;28;20027;-67
2021/03/21 06:57:54;;;;;;;20.77;13.52;;;7.30;99.90;;;;;;4121171;28;20117;-67
2021/03/21 07:00:11;;;;;;;23.10;14.43;;;7.40;99.90;;;;;;4132948;28;20033;-67
2021/03/21 07:02:11;;;;;;;24.95;14.57;;;7.40;99.90;;;;;;4140641;28;20033;-67
2021/03/21 07:04:40;;;;;;;20.58;13.80;;;7.40;99.90;;;;;;4136266;28;20029;-67
2021/03/21 07:07:02;;;;;;;21.95;13.68;;;7.40;99.90;;;;;;4136909;28;20040;-67
2021/03/21 07:09:20;;;;;;;22.30;14.23;;;7.40;99.90;;;;;;4129517;28;20034;-67
2021/03/21 07:11:32;;;;;;;19.55;12.02;;;7.40;99.90;;;;;;4141466;28;20046;-67
2021/03/21 07:14:25;;;;;;;21.38;12.68;;;7.40;99.90;;;;;;4137042;28;20042;-67
2021/03/21 07:16:52;;;;;;;19.70;11.57;;;7.50;99.90;;;;;;4127411;28;20031;-67
2021/03/21 07:19:23;;;;;;;14.15;9.88;;;7.50;99.90;;;;;;4112564;28;20039;-67
2021/03/21 07:21:43;;;;;;;17.35;10.77;;;7.50;99.90;;;;;;4140573;28;20371;-67
2021/03/21 07:24:11;;;;;;;16.40;9.95;;;7.50;99.90;;;;;;4124375;28;20102;-67
2021/03/21 07:26:49;;;;;;;20.77;10.07;;;7.40;99.90;;;;;;4139344;28;20398;-67
2021/03/21 07:29:25;;;;;;;15.63;10.55;;;7.50;99.90;;;;;;4134867;28;20041;-67
2021/03/21 07:31:52;;;;;;;18.65;10.13;;;7.50;99.90;;;;;;4105216;28;20047;-67
2021/03/21 07:34:20;;;;;;;22.77;9.82;;;7.50;99.90;;;;;;4132798;28;20394;-67
2021/03/21 07:36:27;;;;;;;18.60;8.85;;;7.50;99.90;;;;;;4138115;28;20045;-67
2021/03/21 07:39:00;;;;;;;20.08;8.20;;;7.50;99.90;;;;;;4142145;28;20042;-67
2021/03/21 07:41:18;;;;;;;14.50;8.23;;;7.50;99.90;;;;;;4139443;28;20046;-68
2021/03/21 07:43:31;;;;;;;17.73;9.00;;;7.50;99.90;;;;;;4139597;28;20042;-68
2021/03/21 07:45:37;;;;;;;13.18;8.52;;;7.50;99.90;;;;;;4139398;28;20520;-68
2021/03/21 07:48:21;;;;;;;13.02;7.32;;;7.50;99.90;;;;;;4137485;28;20091;-67
2021/03/21 07:50:47;;;;;;;11.07;5.13;;;7.50;99.90;;;;;;4080643;28;20034;-67
2021/03/21 07:53:03;;;;;;;13.52;5.63;;;7.50;99.90;;;;;;4117349;28;20026;-67
2021/03/21 07:55:12;;;;;;;11.68;4.30;;;7.50;99.90;;;;;;4138112;28;20034;-67
2021/03/21 07:57:21;;;;;;;7.47;3.90;;;7.50;99.90;;;;;;4137107;28;20034;-67
2021/03/21 07:59:25;;;;;;;11.20;3.40;;;7.50;99.90;;;;;;4139462;28;20038;-67
2021/03/21 08:01:26;;;;;;;7.65;2.85;;;7.50;99.90;;;;;;4133852;28;20030;-67
2021/03/21 08:03:32;;;;;;;5.97;3.00;;;7.60;99.90;;;;;;4139598;28;20092;-67
2021/03/21 08:05:33;;;;;;;7.93;3.15;;;7.70;99.90;;;;;;4139150;28;20491;-67
2021/03/21 08:07:36;;;;;;;7.32;2.83;;;7.70;99.90;;;;;;4138535;28;20045;-67
2021/03/21 08:09:38;;;;;;;6.80;2.00;;;7.80;99.90;;;;;;4116754;28;20038;-67
2021/03/21 08:11:41;;;;;;;;;;;7.80;99.90;;;;;;4113802;28;20415;-67
2021/03/21 08:13:44;;;;;;;4.25;2.00;;;7.80;99.90;;;;;;4126104;28;19936;-67
2021/03/21 08:15:45;;;;;;;5.10;1.85;;;7.90;99.90;;;;;;4130005;28;20548;-67
2021/03/21 08:17:57;;;;;;;7.28;1.75;;;7.90;99.90;;;;;;4139501;28;20046;-67
2021/03/21 08:20:04;;;;;;;5.93;2.10;;;7.90;99.90;;;;;;4140186;28;20033;-67
2021/03/21 08:22:13;;;;;;;4.55;2.15;;;7.90;99.90;;;;;;4137419;28;20437;-67
2021/03/21 08:24:23;;;;;;;2.92;1.60;;;8.00;99.90;;;;;;4134278;28;20083;-67
2021/03/21 08:26:30;;;;;;;7.68;2.50;;;8.00;99.90;;;;;;4116526;28;20612;-67
2021/03/21 08:28:36;;;;;;;4.18;1.58;;;8.00;99.90;;;;;;4131089;28;20041;-67
2021/03/21 08:30:52;;;;;;;9.02;2.00;;;7.90;99.90;;;;;;4134746;28;20043;-67
2021/03/21 08:33:03;;;;;;;3.85;1.30;;;7.90;99.90;;;;;;4135041;28;20046;-67
2021/03/21 08:35:20;;;;;;;2.63;1.23;;;7.90;99.90;;;;;;4133662;28;20450;-67
2021/03/21 08:37:35;;;;;;;3.70;1.17;;;7.90;99.90;;;;;;4134766;28;20502;-67
2021/03/21 08:39:45;;;;;;;2.88;1.00;;;7.90;99.90;;;;;;4134552;28;20089;-67
2021/03/21 08:41:54;;;;;;;4.43;1.48;;;7.90;99.90;;;;;;4137430;28;20034;-67
2021/03/21 08:44:01;;;;;;;5.38;1.83;;;7.80;99.90;;;;;;4139776;28;20033;-67
2021/03/21 08:46:01;;;;;;;4.80;1.70;;;7.90;99.90;;;;;;4133425;28;20048;-67
2021/03/21 08:48:24;;;;;;;3.20;1.30;;;7.90;99.90;;;;;;4142227;28;20033;-67
2021/03/21 08:50:38;;;;;;;10.70;2.20;;;7.90;99.90;;;;;;4122617;28;20034;-67
2021/03/21 08:52:44;;;;;;;6.15;1.65;;;7.80;99.90;;;;;;4139692;28;20474;-67
2021/03/21 08:54:51;;;;;;;9.75;2.20;;;7.90;99.90;;;;;;4139517;28;20540;-67
2021/03/21 08:57:27;;;;;;;15.32;2.50;;;7.90;99.90;;;;;;4068675;28;20091;-67
2021/03/21 08:59:43;;;;;;;10.40;1.85;;;7.90;99.90;;;;;;4125293;28;20093;-67
2021/03/21 09:01:56;;;;;;;8.50;2.20;;;7.90;99.90;;;;;;4139703;28;20033;-67
2021/03/21 09:04:15;;;;;;;14.30;2.83;;;7.90;99.90;;;;;;4122419;28;20041;-67
2021/03/21 09:06:28;;;;;;;9.38;1.98;;;7.90;99.90;;;;;;4134992;28;20046;-67
2021/03/21 09:08:32;;;;;;;8.48;1.95;;;7.90;99.90;;;;;;4102745;28;20061;-67
2021/03/21 09:10:49;;;;;;;8.45;2.15;;;8.00;99.90;;;;;;4133756;28;20058;-66
2021/03/21 09:12:55;;;;;;;13.57;2.35;;;7.90;99.90;;;;;;4106237;28;20140;-66
2021/03/21 09:15:31;;;;;;;9.60;2.28;;;7.90;99.90;;;;;;4122057;28;20112;-66
2021/03/21 09:17:32;;;;;;;15.23;2.70;;;8.00;99.90;;;;;;4042130;29;20102;-66
2021/03/21 09:19:35;;;;;;;11.05;2.53;;;8.00;99.90;;;;;;4105763;28;20026;-66
2021/03/21 09:21:45;;;;;;;15.30;2.20;;;8.00;99.90;;;;;;4112242;28;20038;-66
2021/03/21 09:24:09;;;;;;;10.73;2.70;;;8.00;99.90;;;;;;4119072;28;20050;-67
2021/03/21 09:26:12;;;;;;;14.65;2.55;;;8.00;99.90;;;;;;4118751;28;20042;-66
2021/03/21 09:28:13;;;;;;;17.45;2.35;;;8.00;99.90;;;;;;4138297;28;20506;-67
2021/03/21 09:30:17;;;;;;;11.27;2.38;;;8.10;99.90;;;;;;4137338;28;20042;-67
2021/03/21 09:32:26;;;;;;;11.77;2.45;;;8.10;99.90;;;;;;4134950;28;20128;-66
2021/03/21 09:34:29;;;;;;;14.75;2.50;;;8.00;99.90;;;;;;4137287;28;20042;-66
2021/03/21 09:36:35;;;;;;;14.85;2.60;;;8.10;99.90;;;;;;4135147;28;20042;-67
2021/03/21 09:38:45;;;;;;;15.77;2.78;;;8.10;99.90;;;;;;4140018;28;20042;-67
2021/03/21 09:40:53;;;;;;;12.27;2.67;;;8.00;99.90;;;;;;4139043;28;20680;-67
2021/03/21 09:42:54;;;;;;;14.13;2.85;;;8.10;99.90;;;;;;4105546;28;20046;-67
2021/03/21 09:44:54;;;;;;;12.05;2.83;;;8.10;99.90;;;;;;4140090;28;20050;-67
2021/03/21 09:47:17;;;;;;;11.20;2.75;;;8.10;99.90;;;;;;4136308;28;20625;-67
2021/03/21 09:49:43;;;;;;;8.07;2.40;;;8.10;99.90;;;;;;4119024;28;20035;-67
2021/03/21 09:52:03;;;;;;;15.80;2.88;;;8.20;99.90;;;;;;4120584;28;20034;-67
2021/03/21 09:54:17;;;;;;;12.98;2.58;;;8.30;99.90;;;;;;4138825;28;20121;-67
2021/03/21 09:56:36;;;;;;;13.02;3.70;;;8.30;99.90;;;;;;4119428;28;20038;-67
2021/03/21 09:59:03;;;;;;;18.63;3.55;;;8.30;99.90;;;;;;4139928;28;20037;-67
2021/03/21 10:01:22;;;;;;;20.98;4.55;;;8.30;99.90;;;;;;4103647;28;20034;-67
2021/03/21 10:03:31;;;;;;;15.40;3.50;;;8.20;99.90;;;;;;4134479;28;20129;-67
2021/03/21 10:06:08;;;;;;;15.65;3.45;;;8.20;99.90;;;;;;4100810;28;20495;-67
2021/03/21 10:08:57;;;;;;;21.65;3.75;;;8.20;99.90;;;;;;4118500;28;20027;-66
2021/03/21 10:11:02;;;;;;;24.27;3.63;;;8.10;99.90;;;;;;4103088;28;20117;-67
2021/03/21 10:13:03;;;;;;;24.52;4.05;;;8.10;99.90;;;;;;4132734;28;20053;-69
2021/03/21 10:15:11;;;;;;;21.40;4.72;;;8.00;99.90;;;;;;4121902;28;20034;-69
2021/03/21 10:17:18;;;;;;;23.52;4.68;;;8.00;99.90;;;;;;4122186;28;20023;-69
2021/03/21 10:19:40;;;;;;;21.17;4.10;;;8.00;99.90;;;;;;4117672;28;20078;-69
2021/03/21 10:21:42;;;;;;;25.45;4.28;;;8.00;99.90;;;;;;4120972;28;20031;-67
2021/03/21 10:23:49;;;;;;;28.73;5.00;;;8.10;99.90;;;;;;4117255;28;20030;-67
2021/03/21 10:25:54;;;;;;;24.00;4.78;;;8.10;99.90;;;;;;4118726;28;20597;-67
2021/03/21 10:27:54;;;;;;;26.33;4.78;;;8.20;99.90;;;;;;4118362;28;20035;-67
2021/03/21 10:30:05;;;;;;;26.52;5.07;;;8.20;99.90;;;;;;4120106;28;20034;-67
2021/03/21 10:32:42;;;;;;;20.85;3.60;;;8.30;99.90;;;;;;4117341;28;20558;-67
2021/03/21 10:34:42;;;;;;;29.52;5.25;;;8.30;99.90;;;;;;4078312;28;20038;-67
2021/03/21 10:36:46;;;;;;;22.10;4.70;;;8.30;99.90;;;;;;4137457;28;20030;-67
2021/03/21 10:38:50;;;;;;;24.08;4.78;;;8.30;99.90;;;;;;4117767;28;20632;-67
2021/03/21 10:40:50;;;;;;;29.33;5.18;;;8.40;99.90;;;;;;4134849;28;20510;-67
2021/03/21 10:43:04;;;;;;;26.88;4.90;;;8.40;99.90;;;;;;4134009;28;20074;-67
2021/03/21 10:45:15;;;;;;;20.00;4.80;;;8.40;99.90;;;;;;4116634;28;20047;-67
2021/03/21 10:47:22;;;;;;;24.77;5.25;;;8.40;99.90;;;;;;4138506;28;20057;-68
2021/03/21 10:49:45;;;;;;;30.15;4.47;;;8.40;99.90;;;;;;4133730;28;20123;-68
2021/03/21 10:52:18;;;;;;;25.52;4.18;;;8.50;99.90;;;;;;4116267;28;20104;-67
2021/03/21 10:54:24;;;;;;;25.67;4.70;;;8.50;99.90;;;;;;4103054;28;20031;-67
2021/03/21 10:56:29;;;;;;;31.92;5.55;;;8.50;99.90;;;;;;4122950;28;20026;-68
2021/03/21 10:58:35;;;;;;;24.48;5.30;;;8.40;99.90;;;;;;4122998;28;20185;-67
2021/03/21 11:00:38;;;;;;;32.05;5.78;;;8.40;99.90;;;;;;4139231;28;20824;-68
2021/03/21 11:02:43;;;;;;;22.83;4.80;;;8.40;99.90;;;;;;4105614;28;20038;-68
2021/03/21 11:04:56;;;;;;;21.77;4.55;;;8.50;99.90;;;;;;4137301;28;20033;-67
2021/03/21 11:07:19;;;;;;;22.63;5.57;;;8.40;99.90;;;;;;4138534;28;20040;-68
2021/03/21 11:09:21;;;;;;;27.15;4.70;;;8.50;99.90;;;;;;4120653;28;20065;-67
2021/03/21 11:11:33;;;;;;;31.42;5.93;;;8.40;99.90;;;;;;4119556;28;20430;-67
2021/03/21 11:13:36;;;;;;;29.75;5.22;;;8.40;99.90;;;;;;4139674;28;20402;-67
2021/03/21 11:15:39;;;;;;;22.23;4.95;;;8.40;99.90;;;;;;4137010;28;20095;-67
2021/03/21 11:17:41;;;;;;;34.42;6.03;;;8.40;99.90;;;;;;4131081;28;20033;-68
2021/03/21 11:19:49;;;;;;;31.80;6.05;;;8.40;99.90;;;;;;4129021;28;20039;-67
2021/03/21 11:21:50;;;;;;;34.75;5.90;;;8.40;99.90;;;;;;4129814;28;20038;-67
2021/03/21 11:23:58;;;;;;;28.63;5.43;;;8.40;99.90;;;;;;4140884;28;20414;-68